sensor_id;sensor_type;location;lat;lon;timestamp;pressure;altitude;pressure_sealevel;temperature;humidity
70256;BME280;57669;52.624;-1.688;2023-02-23T00:00:41;101127.97;;;5.80;52.82
70256;BME280;57669;52.624;-1.688;2023-02-23T00:03:06;101124.22;;;5.40;53.85
70256;BME280;57669;52.624;-1.688;2023-02-23T00:05:35;101120.24;;;5.30;55.01
70256;BME280;57669;52.624;-1.688;2023-02-23T00:07:57;101123.65;;;5.24;56.23
70256;BME280;57669;52.624;-1.688;2023-02-23T00:10:23;101127.53;;;5.50;54.55
70256;BME280;57669;52.624;-1.688;2023-02-23T00:12:48;101125.29;;;5.04;54.61
70256;BME280;57669;52.624;-1.688;2023-02-23T00:15:14;101128.79;;;5.62;54.45
70256;BME280;57669;52.624;-1.688;2023-02-23T00:17:39;101131.96;;;5.72;54.91
70256;BME280;57669;52.624;-1.688;2023-02-23T00:20:08;101133.32;;;4.68;56.05
70256;BME280;57669;52.624;-1.688;2023-02-23T00:22:30;101133.24;;;5.32;54.88
70256;BME280;57669;52.624;-1.688;2023-02-23T00:24:55;101134.51;;;5.16;54.95
70256;BME280;57669;52.624;-1.688;2023-02-23T00:27:20;101137.74;;;5.59;54.46
70256;BME280;57669;52.624;-1.688;2023-02-23T00:29:48;101137.03;;;4.80;56.22
70256;BME280;57669;52.624;-1.688;2023-02-23T00:32:12;101137.11;;;4.81;55.92
70256;BME280;57669;52.624;-1.688;2023-02-23T00:34:38;101141.99;;;4.93;56.38
70256;BME280;57669;52.624;-1.688;2023-02-23T00:37:03;101140.50;;;5.34;55.42
70256;BME280;57669;52.624;-1.688;2023-02-23T00:39:29;101142.33;;;4.95;55.80
70256;BME280;57669;52.624;-1.688;2023-02-23T00:41:55;101145.53;;;5.39;55.36
70256;BME280;57669;52.624;-1.688;2023-02-23T00:44:21;101143.89;;;5.13;56.37
70256;BME280;57669;52.624;-1.688;2023-02-23T00:46:45;101146.49;;;4.63;56.80
70256;BME280;57669;52.624;-1.688;2023-02-23T00:49:12;101145.64;;;4.95;56.67
70256;BME280;57669;52.624;-1.688;2023-02-23T00:51:36;101147.35;;;4.36;57.96
70256;BME280;57669;52.624;-1.688;2023-02-23T00:54:02;101147.57;;;4.33;57.75
70256;BME280;57669;52.624;-1.688;2023-02-23T00:56:26;101144.07;;;4.39;58.10
70256;BME280;57669;52.624;-1.688;2023-02-23T00:58:53;101146.04;;;4.68;57.93
70256;BME280;57669;52.624;-1.688;2023-02-23T01:01:18;101145.30;;;4.54;57.82
70256;BME280;57669;52.624;-1.688;2023-02-23T01:03:44;101143.50;;;4.63;57.60
70256;BME280;57669;52.624;-1.688;2023-02-23T01:06:12;101145.68;;;4.57;57.09
70256;BME280;57669;52.624;-1.688;2023-02-23T01:08:36;101149.50;;;5.06;56.36
70256;BME280;57669;52.624;-1.688;2023-02-23T01:11:05;101146.37;;;4.47;57.15
70256;BME280;57669;52.624;-1.688;2023-02-23T01:13:25;101147.38;;;5.00;55.44
70256;BME280;57669;52.624;-1.688;2023-02-23T01:15:50;101151.94;;;5.26;54.74
70256;BME280;57669;52.624;-1.688;2023-02-23T01:18:17;101151.77;;;5.60;54.43
70256;BME280;57669;52.624;-1.688;2023-02-23T01:20:42;101154.71;;;5.48;54.07
70256;BME280;57669;52.624;-1.688;2023-02-23T01:23:07;101158.77;;;5.97;52.72
70256;BME280;57669;52.624;-1.688;2023-02-23T01:25:43;101159.93;;;6.39;52.14
70256;BME280;57669;52.624;-1.688;2023-02-23T01:28:03;101163.99;;;6.05;52.73
70256;BME280;57669;52.624;-1.688;2023-02-23T01:30:39;101166.78;;;5.94;52.39
70256;BME280;57669;52.624;-1.688;2023-02-23T01:32:48;101169.46;;;6.31;52.04
70256;BME280;57669;52.624;-1.688;2023-02-23T01:35:13;101171.00;;;6.58;51.33
70256;BME280;57669;52.624;-1.688;2023-02-23T01:37:41;101172.81;;;5.81;52.32
70256;BME280;57669;52.624;-1.688;2023-02-23T01:40:07;101176.63;;;5.89;52.15
70256;BME280;57669;52.624;-1.688;2023-02-23T01:42:30;101177.04;;;6.34;51.06
70256;BME280;57669;52.624;-1.688;2023-02-23T01:47:21;101175.76;;;6.30;51.06
70256;BME280;57669;52.624;-1.688;2023-02-23T01:49:46;101177.02;;;5.71;51.81
70256;BME280;57669;52.624;-1.688;2023-02-23T01:52:14;101176.27;;;5.18;53.00
70256;BME280;57669;52.624;-1.688;2023-02-23T01:54:40;101179.49;;;5.78;51.92
70256;BME280;57669;52.624;-1.688;2023-02-23T01:57:05;101177.50;;;6.02;51.63
70256;BME280;57669;52.624;-1.688;2023-02-23T01:59:31;101177.01;;;5.55;51.78
70256;BME280;57669;52.624;-1.688;2023-02-23T02:04:20;101176.89;;;6.08;51.00
70256;BME280;57669;52.624;-1.688;2023-02-23T02:06:46;101177.99;;;6.16;51.21
70256;BME280;57669;52.624;-1.688;2023-02-23T02:09:14;101179.72;;;5.83;51.72
70256;BME280;57669;52.624;-1.688;2023-02-23T02:11:36;101178.33;;;6.09;50.68
70256;BME280;57669;52.624;-1.688;2023-02-23T02:14:04;101176.56;;;6.02;50.86
70256;BME280;57669;52.624;-1.688;2023-02-23T02:16:39;101178.79;;;5.98;51.28
70256;BME280;57669;52.624;-1.688;2023-02-23T02:21:27;101179.19;;;5.92;51.64
70256;BME280;57669;52.624;-1.688;2023-02-23T02:26:14;101181.44;;;6.38;50.68
70256;BME280;57669;52.624;-1.688;2023-02-23T02:28:45;101179.75;;;6.03;51.59
70256;BME280;57669;52.624;-1.688;2023-02-23T02:31:17;101184.83;;;5.95;51.48
70256;BME280;57669;52.624;-1.688;2023-02-23T02:33:40;101182.91;;;6.28;50.78
70256;BME280;57669;52.624;-1.688;2023-02-23T02:36:00;101186.17;;;6.01;51.76
70256;BME280;57669;52.624;-1.688;2023-02-23T02:38:22;101187.53;;;5.84;51.69
70256;BME280;57669;52.624;-1.688;2023-02-23T02:40:44;101187.18;;;5.65;52.53
70256;BME280;57669;52.624;-1.688;2023-02-23T02:43:13;101187.87;;;5.51;53.80
70256;BME280;57669;52.624;-1.688;2023-02-23T02:45:39;101187.52;;;4.79;54.41
70256;BME280;57669;52.624;-1.688;2023-02-23T02:48:03;101185.92;;;5.32;54.32
70256;BME280;57669;52.624;-1.688;2023-02-23T02:50:27;101189.67;;;5.20;54.47
70256;BME280;57669;52.624;-1.688;2023-02-23T02:52:54;101188.04;;;4.93;54.78
70256;BME280;57669;52.624;-1.688;2023-02-23T02:55:17;101192.72;;;5.11;55.15
70256;BME280;57669;52.624;-1.688;2023-02-23T02:57:40;101191.77;;;5.30;54.27
70256;BME280;57669;52.624;-1.688;2023-02-23T03:00:06;101189.39;;;5.27;54.95
70256;BME280;57669;52.624;-1.688;2023-02-23T03:02:32;101191.08;;;5.27;55.53
70256;BME280;57669;52.624;-1.688;2023-02-23T03:04:56;101192.23;;;5.17;55.71
70256;BME280;57669;52.624;-1.688;2023-02-23T03:07:25;101193.99;;;4.96;56.49
70256;BME280;57669;52.624;-1.688;2023-02-23T03:09:52;101193.06;;;5.23;56.03
70256;BME280;57669;52.624;-1.688;2023-02-23T03:12:19;101193.72;;;3.99;59.59
70256;BME280;57669;52.624;-1.688;2023-02-23T03:14:43;101196.26;;;3.67;60.89
70256;BME280;57669;52.624;-1.688;2023-02-23T03:17:08;101202.82;;;3.75;61.10
70256;BME280;57669;52.624;-1.688;2023-02-23T03:19:33;101205.81;;;3.89;60.45
70256;BME280;57669;52.624;-1.688;2023-02-23T03:22:00;101207.41;;;3.78;60.90
70256;BME280;57669;52.624;-1.688;2023-02-23T03:24:26;101208.51;;;4.11;60.57
70256;BME280;57669;52.624;-1.688;2023-02-23T03:26:49;101202.75;;;3.84;61.30
70256;BME280;57669;52.624;-1.688;2023-02-23T03:29:13;101207.93;;;4.38;60.98
70256;BME280;57669;52.624;-1.688;2023-02-23T03:31:38;101210.98;;;4.17;60.89
70256;BME280;57669;52.624;-1.688;2023-02-23T03:43:47;101222.46;;;4.42;60.46
70256;BME280;57669;52.624;-1.688;2023-02-23T03:46:11;101226.55;;;4.75;60.18
70256;BME280;57669;52.624;-1.688;2023-02-23T03:48:35;101230.57;;;4.25;61.31
70256;BME280;57669;52.624;-1.688;2023-02-23T03:51:03;101232.24;;;4.27;60.62
70256;BME280;57669;52.624;-1.688;2023-02-23T03:53:30;101236.18;;;4.65;59.55
70256;BME280;57669;52.624;-1.688;2023-02-23T03:55:54;101237.63;;;4.36;60.62
70256;BME280;57669;52.624;-1.688;2023-02-23T03:58:18;101240.48;;;4.09;61.38
70256;BME280;57669;52.624;-1.688;2023-02-23T04:00:44;101239.65;;;4.05;62.07
70256;BME280;57669;52.624;-1.688;2023-02-23T04:03:08;101241.82;;;4.02;62.27
70256;BME280;57669;52.624;-1.688;2023-02-23T04:05:34;101249.62;;;4.27;63.20
70256;BME280;57669;52.624;-1.688;2023-02-23T04:07:59;101252.80;;;4.19;62.52
70256;BME280;57669;52.624;-1.688;2023-02-23T04:10:24;101255.22;;;4.41;61.56
70256;BME280;57669;52.624;-1.688;2023-02-23T04:12:53;101253.29;;;4.75;60.75
70256;BME280;57669;52.624;-1.688;2023-02-23T04:15:18;101261.77;;;3.74;63.56
70256;BME280;57669;52.624;-1.688;2023-02-23T04:17:41;101257.32;;;3.90;63.94
70256;BME280;57669;52.624;-1.688;2023-02-23T04:20:10;101263.90;;;4.49;62.51
70256;BME280;57669;52.624;-1.688;2023-02-23T04:22:32;101267.15;;;4.39;62.42
70256;BME280;57669;52.624;-1.688;2023-02-23T04:24:57;101265.66;;;4.87;61.48
70256;BME280;57669;52.624;-1.688;2023-02-23T04:27:22;101268.19;;;3.98;62.68
70256;BME280;57669;52.624;-1.688;2023-02-23T04:29:48;101269.07;;;4.00;62.97
70256;BME280;57669;52.624;-1.688;2023-02-23T04:32:16;101271.08;;;3.75;63.58
70256;BME280;57669;52.624;-1.688;2023-02-23T04:46:45;101290.60;;;3.36;64.38
70256;BME280;57669;52.624;-1.688;2023-02-23T04:49:10;101287.05;;;3.46;63.14
70256;BME280;57669;52.624;-1.688;2023-02-23T04:51:35;101284.95;;;3.76;62.18
70256;BME280;57669;52.624;-1.688;2023-02-23T04:54:00;101288.09;;;4.00;62.16
70256;BME280;57669;52.624;-1.688;2023-02-23T04:56:25;101295.27;;;2.92;63.20
70256;BME280;57669;52.624;-1.688;2023-02-23T04:58:50;101292.91;;;3.18;63.88
70256;BME280;57669;52.624;-1.688;2023-02-23T05:01:16;101296.17;;;3.28;63.60
70256;BME280;57669;52.624;-1.688;2023-02-23T05:03:41;101303.21;;;3.12;63.81
70256;BME280;57669;52.624;-1.688;2023-02-23T05:06:06;101317.92;;;2.91;64.11
70256;BME280;57669;52.624;-1.688;2023-02-23T05:08:31;101318.50;;;3.21;63.20
70256;BME280;57669;52.624;-1.688;2023-02-23T05:10:56;101321.35;;;3.18;63.43
70256;BME280;57669;52.624;-1.688;2023-02-23T05:13:21;101325.40;;;3.37;62.23
70256;BME280;57669;52.624;-1.688;2023-02-23T05:15:46;101329.21;;;3.10;62.24
70256;BME280;57669;52.624;-1.688;2023-02-23T05:18:11;101336.31;;;3.55;61.37
70256;BME280;57669;52.624;-1.688;2023-02-23T05:20:36;101339.65;;;3.41;61.04
70256;BME280;57669;52.624;-1.688;2023-02-23T05:23:02;101338.18;;;3.51;61.22
70256;BME280;57669;52.624;-1.688;2023-02-23T05:25:26;101342.84;;;3.53;60.60
70256;BME280;57669;52.624;-1.688;2023-02-23T05:27:51;101337.63;;;3.45;61.04
70256;BME280;57669;52.624;-1.688;2023-02-23T05:30:17;101334.96;;;3.42;60.64
70256;BME280;57669;52.624;-1.688;2023-02-23T05:32:42;101334.31;;;3.31;60.30
70256;BME280;57669;52.624;-1.688;2023-02-23T05:35:08;101331.82;;;2.85;61.61
70256;BME280;57669;52.624;-1.688;2023-02-23T05:37:33;101340.78;;;3.00;60.98
70256;BME280;57669;52.624;-1.688;2023-02-23T05:39:58;101345.83;;;3.10;60.24
70256;BME280;57669;52.624;-1.688;2023-02-23T05:42:23;101348.14;;;3.28;59.82
70256;BME280;57669;52.624;-1.688;2023-02-23T05:44:49;101350.08;;;3.48;59.82
70256;BME280;57669;52.624;-1.688;2023-02-23T05:47:14;101356.47;;;3.16;60.04
70256;BME280;57669;52.624;-1.688;2023-02-23T05:49:39;101359.59;;;3.05;60.24
70256;BME280;57669;52.624;-1.688;2023-02-23T05:52:05;101355.98;;;3.09;59.00
70256;BME280;57669;52.624;-1.688;2023-02-23T05:54:30;101364.73;;;2.86;59.42
70256;BME280;57669;52.624;-1.688;2023-02-23T05:56:55;101365.72;;;3.11;59.19
70256;BME280;57669;52.624;-1.688;2023-02-23T05:59:21;101366.18;;;2.80;59.99
70256;BME280;57669;52.624;-1.688;2023-02-23T06:01:46;101365.43;;;2.87;59.65
70256;BME280;57669;52.624;-1.688;2023-02-23T06:04:12;101372.64;;;2.69;59.55
70256;BME280;57669;52.624;-1.688;2023-02-23T06:06:37;101372.44;;;2.71;59.07
70256;BME280;57669;52.624;-1.688;2023-02-23T06:09:03;101372.72;;;2.81;59.52
70256;BME280;57669;52.624;-1.688;2023-02-23T06:11:27;101376.80;;;2.88;58.97
70256;BME280;57669;52.624;-1.688;2023-02-23T06:13:53;101373.30;;;2.89;58.88
70256;BME280;57669;52.624;-1.688;2023-02-23T06:16:17;101377.10;;;2.58;58.90
70256;BME280;57669;52.624;-1.688;2023-02-23T06:18:43;101378.86;;;2.57;58.93
70256;BME280;57669;52.624;-1.688;2023-02-23T06:21:08;101382.05;;;2.70;59.24
70256;BME280;57669;52.624;-1.688;2023-02-23T06:23:34;101386.74;;;2.66;59.77
70256;BME280;57669;52.624;-1.688;2023-02-23T06:25:59;101390.51;;;2.66;59.21
70256;BME280;57669;52.624;-1.688;2023-02-23T06:28:24;101385.96;;;2.44;59.28
70256;BME280;57669;52.624;-1.688;2023-02-23T06:30:51;101391.40;;;2.76;58.73
70256;BME280;57669;52.624;-1.688;2023-02-23T06:33:14;101400.67;;;2.10;59.77
70256;BME280;57669;52.624;-1.688;2023-02-23T06:35:40;101404.04;;;2.37;58.13
70256;BME280;57669;52.624;-1.688;2023-02-23T06:38:06;101404.75;;;2.91;57.97
70256;BME280;57669;52.624;-1.688;2023-02-23T06:40:31;101412.37;;;2.33;59.00
70256;BME280;57669;52.624;-1.688;2023-02-23T06:42:57;101411.89;;;2.42;58.64
70256;BME280;57669;52.624;-1.688;2023-02-23T06:45:22;101416.75;;;2.58;58.76
70256;BME280;57669;52.624;-1.688;2023-02-23T06:47:47;101416.25;;;2.89;57.62
70256;BME280;57669;52.624;-1.688;2023-02-23T06:50:14;101420.43;;;2.55;58.47
70256;BME280;57669;52.624;-1.688;2023-02-23T06:52:39;101420.10;;;2.66;59.16
70256;BME280;57669;52.624;-1.688;2023-02-23T06:55:04;101436.14;;;2.00;60.99
70256;BME280;57669;52.624;-1.688;2023-02-23T06:57:28;101437.35;;;1.82;60.53
70256;BME280;57669;52.624;-1.688;2023-02-23T06:59:53;101438.95;;;2.27;59.65
70256;BME280;57669;52.624;-1.688;2023-02-23T07:02:19;101446.98;;;1.95;59.84
70256;BME280;57669;52.624;-1.688;2023-02-23T07:04:44;101446.36;;;2.64;58.52
70256;BME280;57669;52.624;-1.688;2023-02-23T07:07:10;101441.79;;;3.08;57.24
70256;BME280;57669;52.624;-1.688;2023-02-23T07:09:35;101440.61;;;2.87;57.53
70256;BME280;57669;52.624;-1.688;2023-02-23T07:12:00;101450.04;;;2.90;58.48
70256;BME280;57669;52.624;-1.688;2023-02-23T07:14:25;101454.58;;;2.38;59.74
70256;BME280;57669;52.624;-1.688;2023-02-23T07:16:50;101457.02;;;1.91;60.28
70256;BME280;57669;52.624;-1.688;2023-02-23T07:21:51;101465.28;;;2.59;58.39
70256;BME280;57669;52.624;-1.688;2023-02-23T07:24:07;101473.31;;;3.11;57.39
70256;BME280;57669;52.624;-1.688;2023-02-23T07:26:32;101480.16;;;3.22;56.46
70256;BME280;57669;52.624;-1.688;2023-02-23T07:28:58;101483.10;;;2.68;57.94
70256;BME280;57669;52.624;-1.688;2023-02-23T07:31:23;101484.02;;;3.17;56.22
70256;BME280;57669;52.624;-1.688;2023-02-23T07:33:48;101489.72;;;3.34;56.11
70256;BME280;57669;52.624;-1.688;2023-02-23T07:38:39;101501.64;;;3.18;56.00
70256;BME280;57669;52.624;-1.688;2023-02-23T07:41:05;101508.17;;;3.29;56.56
70256;BME280;57669;52.624;-1.688;2023-02-23T07:43:30;101512.98;;;3.22;55.88
70256;BME280;57669;52.624;-1.688;2023-02-23T07:45:58;101517.91;;;3.26;55.96
70256;BME280;57669;52.624;-1.688;2023-02-23T07:48:20;101526.68;;;3.50;55.01
70256;BME280;57669;52.624;-1.688;2023-02-23T07:50:45;101533.04;;;3.42;55.13
70256;BME280;57669;52.624;-1.688;2023-02-23T07:53:10;101541.69;;;3.12;55.74
70256;BME280;57669;52.624;-1.688;2023-02-23T07:55:36;101549.25;;;2.86;56.54
70256;BME280;57669;52.624;-1.688;2023-02-23T07:58:00;101554.36;;;3.22;55.01
70256;BME280;57669;52.624;-1.688;2023-02-23T08:00:26;101557.51;;;3.21;54.54
70256;BME280;57669;52.624;-1.688;2023-02-23T08:02:51;101570.06;;;3.96;54.03
70256;BME280;57669;52.624;-1.688;2023-02-23T08:05:17;101567.30;;;3.83;54.01
70256;BME280;57669;52.624;-1.688;2023-02-23T08:07:42;101574.93;;;3.23;55.39
70256;BME280;57669;52.624;-1.688;2023-02-23T08:10:08;101574.95;;;3.70;54.47
70256;BME280;57669;52.624;-1.688;2023-02-23T08:12:33;101570.93;;;3.50;54.29
70256;BME280;57669;52.624;-1.688;2023-02-23T08:14:58;101575.92;;;3.73;53.85
70256;BME280;57669;52.624;-1.688;2023-02-23T08:17:23;101581.24;;;4.12;53.17
70256;BME280;57669;52.624;-1.688;2023-02-23T08:22:13;101597.44;;;4.21;53.26
70256;BME280;57669;52.624;-1.688;2023-02-23T08:24:39;101597.80;;;3.43;54.90
70256;BME280;57669;52.624;-1.688;2023-02-23T08:27:13;101603.81;;;3.61;54.92
70256;BME280;57669;52.624;-1.688;2023-02-23T08:29:29;101606.17;;;3.78;53.87
70256;BME280;57669;52.624;-1.688;2023-02-23T08:31:54;101613.52;;;3.38;54.61
70256;BME280;57669;52.624;-1.688;2023-02-23T08:34:19;101617.88;;;3.65;54.49
70256;BME280;57669;52.624;-1.688;2023-02-23T08:36:45;101615.49;;;3.68;54.32
70256;BME280;57669;52.624;-1.688;2023-02-23T08:39:10;101608.79;;;3.79;54.05
70256;BME280;57669;52.624;-1.688;2023-02-23T08:41:35;101611.84;;;3.95;53.41
70256;BME280;57669;52.624;-1.688;2023-02-23T08:44:01;101613.98;;;3.87;53.47
70256;BME280;57669;52.624;-1.688;2023-02-23T08:46:26;101617.06;;;3.94;54.00
70256;BME280;57669;52.624;-1.688;2023-02-23T08:48:51;101617.83;;;3.72;54.30
70256;BME280;57669;52.624;-1.688;2023-02-23T08:51:16;101616.53;;;4.16;54.60
70256;BME280;57669;52.624;-1.688;2023-02-23T08:53:41;101610.75;;;3.41;55.21
70256;BME280;57669;52.624;-1.688;2023-02-23T08:56:07;101615.39;;;3.51;54.52
70256;BME280;57669;52.624;-1.688;2023-02-23T08:58:33;101610.03;;;3.93;53.75
70256;BME280;57669;52.624;-1.688;2023-02-23T09:00:57;101610.01;;;3.43;55.29
70256;BME280;57669;52.624;-1.688;2023-02-23T09:03:22;101607.18;;;3.44;55.54
70256;BME280;57669;52.624;-1.688;2023-02-23T09:05:48;101606.87;;;3.29;55.72
70256;BME280;57669;52.624;-1.688;2023-02-23T09:08:13;101599.56;;;3.50;55.86
70256;BME280;57669;52.624;-1.688;2023-02-23T09:10:37;101597.73;;;3.76;55.36
70256;BME280;57669;52.624;-1.688;2023-02-23T09:13:04;101598.19;;;3.75;55.33
70256;BME280;57669;52.624;-1.688;2023-02-23T09:15:29;101597.89;;;3.50;56.23
70256;BME280;57669;52.624;-1.688;2023-02-23T09:17:54;101586.97;;;3.75;55.08
70256;BME280;57669;52.624;-1.688;2023-02-23T09:20:20;101590.94;;;3.48;54.98
70256;BME280;57669;52.624;-1.688;2023-02-23T09:22:45;101592.07;;;3.14;56.29
70256;BME280;57669;52.624;-1.688;2023-02-23T09:27:36;101593.02;;;3.45;55.82
70256;BME280;57669;52.624;-1.688;2023-02-23T09:30:01;101601.03;;;3.15;56.12
70256;BME280;57669;52.624;-1.688;2023-02-23T09:32:26;101596.78;;;3.37;57.00
70256;BME280;57669;52.624;-1.688;2023-02-23T09:34:52;101600.32;;;3.24;56.34
70256;BME280;57669;52.624;-1.688;2023-02-23T09:37:17;101597.83;;;3.75;55.55
70256;BME280;57669;52.624;-1.688;2023-02-23T09:39:42;101592.97;;;3.75;54.28
70256;BME280;57669;52.624;-1.688;2023-02-23T09:42:16;101599.50;;;3.38;55.07
70256;BME280;57669;52.624;-1.688;2023-02-23T09:44:43;101602.66;;;3.12;55.18
70256;BME280;57669;52.624;-1.688;2023-02-23T09:47:08;101603.32;;;3.86;53.95
70256;BME280;57669;52.624;-1.688;2023-02-23T09:49:26;101608.29;;;3.84;55.03
70256;BME280;57669;52.624;-1.688;2023-02-23T09:51:52;101603.83;;;4.01;53.40
70256;BME280;57669;52.624;-1.688;2023-02-23T09:54:15;101605.80;;;3.72;53.72
70256;BME280;57669;52.624;-1.688;2023-02-23T09:56:43;101613.48;;;4.49;52.28
70256;BME280;57669;52.624;-1.688;2023-02-23T09:59:09;101615.00;;;4.68;52.49
70256;BME280;57669;52.624;-1.688;2023-02-23T10:01:48;101604.59;;;4.04;51.85
70256;BME280;57669;52.624;-1.688;2023-02-23T10:04:00;101616.57;;;4.80;51.32
70256;BME280;57669;52.624;-1.688;2023-02-23T10:06:22;101604.66;;;4.32;49.52
70256;BME280;57669;52.624;-1.688;2023-02-23T10:08:54;101606.09;;;4.00;49.80
70256;BME280;57669;52.624;-1.688;2023-02-23T10:11:22;101604.38;;;3.64;49.95
70256;BME280;57669;52.624;-1.688;2023-02-23T10:13:47;101604.82;;;4.00;50.30
70256;BME280;57669;52.624;-1.688;2023-02-23T10:16:09;101612.32;;;4.71;49.31
70256;BME280;57669;52.624;-1.688;2023-02-23T10:18:35;101601.72;;;3.98;50.93
70256;BME280;57669;52.624;-1.688;2023-02-23T10:21:01;101603.55;;;3.66;51.32
70256;BME280;57669;52.624;-1.688;2023-02-23T10:23:26;101611.25;;;4.30;50.47
70256;BME280;57669;52.624;-1.688;2023-02-23T10:25:48;101615.41;;;4.33;49.64
70256;BME280;57669;52.624;-1.688;2023-02-23T10:28:15;101618.69;;;4.96;48.87
70256;BME280;57669;52.624;-1.688;2023-02-23T10:30:39;101614.90;;;5.07;47.86
70256;BME280;57669;52.624;-1.688;2023-02-23T10:33:09;101617.42;;;4.84;47.55
70256;BME280;57669;52.624;-1.688;2023-02-23T10:35:28;101623.27;;;4.91;48.89
70256;BME280;57669;52.624;-1.688;2023-02-23T10:37:54;101623.61;;;5.40;48.71
70256;BME280;57669;52.624;-1.688;2023-02-23T10:40:22;101626.27;;;5.21;47.66
70256;BME280;57669;52.624;-1.688;2023-02-23T10:42:45;101631.52;;;5.38;46.65
70256;BME280;57669;52.624;-1.688;2023-02-23T10:45:14;101635.76;;;5.46;46.88
70256;BME280;57669;52.624;-1.688;2023-02-23T10:47:36;101631.92;;;5.35;46.49
70256;BME280;57669;52.624;-1.688;2023-02-23T10:50:02;101635.40;;;4.95;46.81
70256;BME280;57669;52.624;-1.688;2023-02-23T10:52:30;101637.72;;;4.89;48.08
70256;BME280;57669;52.624;-1.688;2023-02-23T10:54:52;101642.10;;;5.59;46.50
70256;BME280;57669;52.624;-1.688;2023-02-23T10:57:21;101638.45;;;5.40;44.97
70256;BME280;57669;52.624;-1.688;2023-02-23T11:02:24;101645.24;;;4.69;44.73
70256;BME280;57669;52.624;-1.688;2023-02-23T11:04:49;101638.76;;;5.19;43.29
70256;BME280;57669;52.624;-1.688;2023-02-23T11:07:07;101639.74;;;5.59;43.84
70256;BME280;57669;52.624;-1.688;2023-02-23T11:09:27;101632.21;;;5.56;43.79
70256;BME280;57669;52.624;-1.688;2023-02-23T11:11:56;101633.30;;;6.02;44.29
70256;BME280;57669;52.624;-1.688;2023-02-23T11:19:19;101619.43;;;5.79;46.16
70256;BME280;57669;52.624;-1.688;2023-02-23T11:21:39;101621.83;;;5.93;44.92
70256;BME280;57669;52.624;-1.688;2023-02-23T11:24:12;101624.47;;;5.81;43.86
70256;BME280;57669;52.624;-1.688;2023-02-23T11:26:34;101623.50;;;5.48;44.44
70256;BME280;57669;52.624;-1.688;2023-02-23T11:28:52;101618.06;;;5.95;44.39
70256;BME280;57669;52.624;-1.688;2023-02-23T11:31:19;101621.52;;;6.24;43.48
70256;BME280;57669;52.624;-1.688;2023-02-23T11:33:49;101622.91;;;6.04;42.90
70256;BME280;57669;52.624;-1.688;2023-02-23T11:38:41;101628.88;;;6.21;44.63
70256;BME280;57669;52.624;-1.688;2023-02-23T11:43:37;101631.59;;;7.00;42.47
70256;BME280;57669;52.624;-1.688;2023-02-23T11:45:51;101630.41;;;6.41;41.66
70256;BME280;57669;52.624;-1.688;2023-02-23T11:48:20;101643.27;;;5.82;42.47
70256;BME280;57669;52.624;-1.688;2023-02-23T11:50:44;101643.75;;;6.18;42.21
70256;BME280;57669;52.624;-1.688;2023-02-23T11:55:37;101640.68;;;6.47;41.27
70256;BME280;57669;52.624;-1.688;2023-02-23T12:00:26;101646.60;;;5.85;43.26
70256;BME280;57669;52.624;-1.688;2023-02-23T12:02:54;101638.28;;;5.98;42.74
70256;BME280;57669;52.624;-1.688;2023-02-23T12:05:19;101643.40;;;6.66;41.53
70256;BME280;57669;52.624;-1.688;2023-02-23T12:07:39;101643.18;;;6.31;42.50
70256;BME280;57669;52.624;-1.688;2023-02-23T12:10:11;101647.17;;;6.40;42.10
70256;BME280;57669;52.624;-1.688;2023-02-23T12:12:30;101651.54;;;6.65;41.94
70256;BME280;57669;52.624;-1.688;2023-02-23T12:14:59;101652.20;;;5.85;42.44
70256;BME280;57669;52.624;-1.688;2023-02-23T12:17:24;101651.44;;;6.35;41.81
70256;BME280;57669;52.624;-1.688;2023-02-23T12:19:48;101643.53;;;6.79;41.39
70256;BME280;57669;52.624;-1.688;2023-02-23T12:22:12;101638.68;;;6.40;41.54
70256;BME280;57669;52.624;-1.688;2023-02-23T12:24:42;101639.92;;;6.43;42.60
70256;BME280;57669;52.624;-1.688;2023-02-23T12:27:08;101629.10;;;6.71;41.08
70256;BME280;57669;52.624;-1.688;2023-02-23T12:29:32;101635.10;;;7.03;40.47
70256;BME280;57669;52.624;-1.688;2023-02-23T12:31:56;101638.42;;;7.71;38.89
70256;BME280;57669;52.624;-1.688;2023-02-23T12:34:23;101630.77;;;7.93;37.99
70256;BME280;57669;52.624;-1.688;2023-02-23T12:36:46;101635.48;;;7.25;37.96
70256;BME280;57669;52.624;-1.688;2023-02-23T12:39:15;101633.06;;;8.10;36.84
70256;BME280;57669;52.624;-1.688;2023-02-23T12:41:37;101639.34;;;8.39;36.65
70256;BME280;57669;52.624;-1.688;2023-02-23T12:44:09;101637.29;;;8.45;36.45
70256;BME280;57669;52.624;-1.688;2023-02-23T12:46:29;101627.87;;;8.50;35.33
70256;BME280;57669;52.624;-1.688;2023-02-23T12:49:00;101622.43;;;10.14;34.96
70256;BME280;57669;52.624;-1.688;2023-02-23T12:51:23;101619.40;;;10.13;34.48
70256;BME280;57669;52.624;-1.688;2023-02-23T12:53:44;101619.70;;;10.67;32.92
70256;BME280;57669;52.624;-1.688;2023-02-23T12:56:16;101620.92;;;11.09;32.18
70256;BME280;57669;52.624;-1.688;2023-02-23T12:58:40;101614.96;;;10.66;32.49
70256;BME280;57669;52.624;-1.688;2023-02-23T13:01:04;101615.24;;;9.61;33.75
70256;BME280;57669;52.624;-1.688;2023-02-23T13:03:35;101613.43;;;9.80;32.95
70256;BME280;57669;52.624;-1.688;2023-02-23T13:05:55;101617.48;;;9.89;34.06
70256;BME280;57669;52.624;-1.688;2023-02-23T13:08:21;101608.89;;;9.90;33.26
70256;BME280;57669;52.624;-1.688;2023-02-23T13:10:49;101603.93;;;8.95;33.49
70256;BME280;57669;52.624;-1.688;2023-02-23T13:13:17;101601.93;;;10.21;32.17
70256;BME280;57669;52.624;-1.688;2023-02-23T13:15:45;101601.02;;;10.67;31.56
70256;BME280;57669;52.624;-1.688;2023-02-23T13:18:04;101590.42;;;11.42;30.42
70256;BME280;57669;52.624;-1.688;2023-02-23T13:20:31;101591.53;;;10.20;31.76
70256;BME280;57669;52.624;-1.688;2023-02-23T13:22:56;101588.26;;;11.48;30.27
70256;BME280;57669;52.624;-1.688;2023-02-23T13:25:25;101584.55;;;11.07;29.74
70256;BME280;57669;52.624;-1.688;2023-02-23T13:27:48;101586.58;;;10.54;31.09
70256;BME280;57669;52.624;-1.688;2023-02-23T13:30:09;101596.38;;;9.64;32.03
70256;BME280;57669;52.624;-1.688;2023-02-23T13:32:34;101599.90;;;8.97;33.68
70256;BME280;57669;52.624;-1.688;2023-02-23T13:35:01;101596.52;;;8.28;34.60
70256;BME280;57669;52.624;-1.688;2023-02-23T13:37:29;101596.77;;;7.90;35.97